sensor_id;sensor_type;location;lat;lon;timestamp;pressure;altitude;pressure_sealevel;temperature;humidity
10852;BME280;5479;52.046;6.314;2023-03-12T00:02:25;101131.06;;;1.58;100.00
10852;BME280;5479;52.046;6.314;2023-03-12T00:04:53;101124.94;;;1.59;100.00
10852;BME280;5479;52.046;6.314;2023-03-12T00:07:22;101126.47;;;1.69;100.00
10852;BME280;5479;52.046;6.314;2023-03-12T00:09:50;101121.88;;;1.83;100.00
10852;BME280;5479;52.046;6.314;2023-03-12T00:12:19;101118.41;;;1.84;100.00
10852;BME280;5479;52.046;6.314;2023-03-12T00:14:47;101123.47;;;1.92;100.00
10852;BME280;5479;52.046;6.314;2023-03-12T00:17:15;101119.06;;;1.95;100.00
10852;BME280;5479;52.046;6.314;2023-03-12T00:19:43;101122.59;;;1.91;100.00
10852;BME280;5479;52.046;6.314;2023-03-12T00:22:11;101131.25;;;1.93;100.00
10852;BME280;5479;52.046;6.314;2023-03-12T00:24:42;101126.84;;;1.97;100.00
10852;BME280;5479;52.046;6.314;2023-03-12T00:27:10;101121.81;;;1.86;100.00
10852;BME280;5479;52.046;6.314;2023-03-12T00:29:39;101115.66;;;1.90;100.00
10852;BME280;5479;52.046;6.314;2023-03-12T00:32:07;101107.03;;;1.85;100.00
10852;BME280;5479;52.046;6.314;2023-03-12T00:34:36;101108.78;;;1.86;100.00
10852;BME280;5479;52.046;6.314;2023-03-12T00:37:04;101112.25;;;1.85;100.00
10852;BME280;5479;52.046;6.314;2023-03-12T00:39:32;101099.97;;;1.90;100.00
10852;BME280;5479;52.046;6.314;2023-03-12T00:42:00;101100.94;;;1.86;100.00
10852;BME280;5479;52.046;6.314;2023-03-12T00:44:28;101106.94;;;1.91;100.00
10852;BME280;5479;52.046;6.314;2023-03-12T00:46:57;101093.16;;;1.83;100.00
10852;BME280;5479;52.046;6.314;2023-03-12T00:49:25;101092.94;;;1.95;100.00
10852;BME280;5479;52.046;6.314;2023-03-12T00:51:53;101094.88;;;1.84;100.00
10852;BME280;5479;52.046;6.314;2023-03-12T00:54:21;101092.28;;;1.82;100.00
10852;BME280;5479;52.046;6.314;2023-03-12T00:56:53;101088.97;;;1.74;100.00
10852;BME280;5479;52.046;6.314;2023-03-12T00:59:21;101082.03;;;1.73;100.00
10852;BME280;5479;52.046;6.314;2023-03-12T01:01:49;101073.22;;;1.79;100.00
10852;BME280;5479;52.046;6.314;2023-03-12T01:04:19;101081.22;;;1.70;100.00
10852;BME280;5479;52.046;6.314;2023-03-12T01:06:47;101075.94;;;1.73;100.00
10852;BME280;5479;52.046;6.314;2023-03-12T01:09:14;101071.59;;;1.72;100.00
10852;BME280;5479;52.046;6.314;2023-03-12T01:11:43;101064.53;;;1.78;100.00
10852;BME280;5479;52.046;6.314;2023-03-12T01:14:11;101063.75;;;1.73;100.00
10852;BME280;5479;52.046;6.314;2023-03-12T01:16:40;101062.94;;;1.70;100.00
10852;BME280;5479;52.046;6.314;2023-03-12T01:19:08;101063.00;;;1.67;100.00
10852;BME280;5479;52.046;6.314;2023-03-12T01:21:37;101062.34;;;1.56;100.00
10852;BME280;5479;52.046;6.314;2023-03-12T01:24:06;101060.63;;;1.55;100.00
10852;BME280;5479;52.046;6.314;2023-03-12T01:26:34;101064.94;;;1.57;100.00
10852;BME280;5479;52.046;6.314;2023-03-12T01:29:02;101068.13;;;1.71;100.00
10852;BME280;5479;52.046;6.314;2023-03-12T01:31:30;101068.03;;;1.77;100.00
10852;BME280;5479;52.046;6.314;2023-03-12T01:33:58;101055.88;;;1.75;100.00
10852;BME280;5479;52.046;6.314;2023-03-12T01:36:28;101051.44;;;1.80;100.00
10852;BME280;5479;52.046;6.314;2023-03-12T01:38:58;101049.84;;;1.73;100.00
10852;BME280;5479;52.046;6.314;2023-03-12T01:41:27;101056.59;;;1.85;100.00
10852;BME280;5479;52.046;6.314;2023-03-12T01:44:00;101053.94;;;1.86;100.00
10852;BME280;5479;52.046;6.314;2023-03-12T01:46:31;101049.78;;;1.76;100.00
10852;BME280;5479;52.046;6.314;2023-03-12T01:49:03;101044.78;;;1.64;100.00
10852;BME280;5479;52.046;6.314;2023-03-12T01:51:36;101034.41;;;1.61;100.00
10852;BME280;5479;52.046;6.314;2023-03-12T01:54:10;101032.81;;;1.54;100.00
10852;BME280;5479;52.046;6.314;2023-03-12T01:56:41;101031.16;;;1.50;100.00
10852;BME280;5479;52.046;6.314;2023-03-12T01:59:13;101025.22;;;1.40;100.00
10852;BME280;5479;52.046;6.314;2023-03-12T02:01:42;101022.72;;;1.34;100.00
10852;BME280;5479;52.046;6.314;2023-03-12T02:04:11;101021.94;;;1.29;100.00
10852;BME280;5479;52.046;6.314;2023-03-12T02:06:44;101027.16;;;1.29;100.00
10852;BME280;5479;52.046;6.314;2023-03-12T02:09:18;101024.59;;;1.28;100.00
10852;BME280;5479;52.046;6.314;2023-03-12T02:11:47;101027.16;;;1.29;100.00
10852;BME280;5479;52.046;6.314;2023-03-12T02:14:15;101022.72;;;1.36;100.00
10852;BME280;5479;52.046;6.314;2023-03-12T02:16:44;101019.47;;;1.23;100.00
10852;BME280;5479;52.046;6.314;2023-03-12T02:19:16;101022.88;;;1.27;100.00
10852;BME280;5479;52.046;6.314;2023-03-12T02:21:46;101022.88;;;1.27;100.00
10852;BME280;5479;52.046;6.314;2023-03-12T02:24:20;101020.28;;;1.25;100.00
10852;BME280;5479;52.046;6.314;2023-03-12T02:26:53;101020.50;;;1.13;100.00
10852;BME280;5479;52.046;6.314;2023-03-12T02:29:21;101015.31;;;1.11;100.00
10852;BME280;5479;52.046;6.314;2023-03-12T02:31:54;101010.06;;;1.13;100.00
10852;BME280;5479;52.046;6.314;2023-03-12T02:34:23;101004.66;;;1.25;100.00
10852;BME280;5479;52.046;6.314;2023-03-12T02:36:51;100999.28;;;1.33;100.00
10852;BME280;5479;52.046;6.314;2023-03-12T02:39:19;100996.72;;;1.30;100.00
10852;BME280;5479;52.046;6.314;2023-03-12T02:41:50;100995.69;;;1.38;100.00
10852;BME280;5479;52.046;6.314;2023-03-12T02:44:21;100994.84;;;1.38;100.00
10852;BME280;5479;52.046;6.314;2023-03-12T02:46:52;100988.59;;;1.46;100.00
10852;BME280;5479;52.046;6.314;2023-03-12T02:49:23;100982.63;;;1.40;100.00
10852;BME280;5479;52.046;6.314;2023-03-12T02:51:52;100963.53;;;1.38;100.00
10852;BME280;5479;52.046;6.314;2023-03-12T02:54:20;100966.97;;;1.40;100.00
10852;BME280;5479;52.046;6.314;2023-03-12T02:56:49;100959.19;;;1.37;100.00
10852;BME280;5479;52.046;6.314;2023-03-12T02:59:18;100961.69;;;1.43;100.00
10852;BME280;5479;52.046;6.314;2023-03-12T03:01:52;100959.88;;;1.46;100.00
10852;BME280;5479;52.046;6.314;2023-03-12T03:04:21;100960.09;;;1.36;100.00
10852;BME280;5479;52.046;6.314;2023-03-12T03:06:49;100960.03;;;1.39;100.00
10852;BME280;5479;52.046;6.314;2023-03-12T03:09:17;100956.53;;;1.40;100.00
10852;BME280;5479;52.046;6.314;2023-03-12T03:11:48;100955.59;;;1.42;100.00
10852;BME280;5479;52.046;6.314;2023-03-12T03:14:16;100947.88;;;1.38;100.00
10852;BME280;5479;52.046;6.314;2023-03-12T03:16:44;100940.78;;;1.44;100.00
10852;BME280;5479;52.046;6.314;2023-03-12T03:19:14;100937.31;;;1.44;100.00
10852;BME280;5479;52.046;6.314;2023-03-12T03:21:42;100938.25;;;1.41;100.00
10852;BME280;5479;52.046;6.314;2023-03-12T03:24:10;100928.66;;;1.42;100.00
10852;BME280;5479;52.046;6.314;2023-03-12T03:26:38;100925.09;;;1.46;100.00
10852;BME280;5479;52.046;6.314;2023-03-12T03:29:06;100923.31;;;1.48;100.00
10852;BME280;5479;52.046;6.314;2023-03-12T03:31:34;100919.81;;;1.49;100.00
10852;BME280;5479;52.046;6.314;2023-03-12T03:34:02;100922.25;;;1.58;100.00
10852;BME280;5479;52.046;6.314;2023-03-12T03:36:31;100923.91;;;1.62;100.00
10852;BME280;5479;52.046;6.314;2023-03-12T03:38:59;100927.47;;;1.58;100.00
10852;BME280;5479;52.046;6.314;2023-03-12T03:41:27;100925.28;;;1.78;100.00
10852;BME280;5479;52.046;6.314;2023-03-12T03:43:56;100917.41;;;1.79;100.00
10852;BME280;5479;52.046;6.314;2023-03-12T03:46:25;100917.34;;;1.84;100.00
10852;BME280;5479;52.046;6.314;2023-03-12T03:48:53;100917.19;;;1.90;100.00
10852;BME280;5479;52.046;6.314;2023-03-12T03:51:20;100911.47;;;1.73;100.00
10852;BME280;5479;52.046;6.314;2023-03-12T03:53:50;100906.09;;;1.80;100.00
10852;BME280;5479;52.046;6.314;2023-03-12T03:56:18;100913.75;;;1.88;100.00
10852;BME280;5479;52.046;6.314;2023-03-12T03:58:46;100921.38;;;1.97;100.00
10852;BME280;5479;52.046;6.314;2023-03-12T04:01:14;100911.00;;;1.94;100.00
10852;BME280;5479;52.046;6.314;2023-03-12T04:03:42;100903.25;;;1.91;100.00
10852;BME280;5479;52.046;6.314;2023-03-12T04:06:11;100904.75;;;2.01;100.00
10852;BME280;5479;52.046;6.314;2023-03-12T04:08:39;100897.75;;;2.03;100.00
10852;BME280;5479;52.046;6.314;2023-03-12T04:11:10;100893.31;;;2.07;100.00
10852;BME280;5479;52.046;6.314;2023-03-12T04:13:38;100901.19;;;2.05;100.00
10852;BME280;5479;52.046;6.314;2023-03-12T04:16:06;100895.72;;;2.14;100.00
10852;BME280;5479;52.046;6.314;2023-03-12T04:18:34;100890.75;;;2.04;100.00
10852;BME280;5479;52.046;6.314;2023-03-12T04:21:03;100888.88;;;2.10;100.00
10852;BME280;5479;52.046;6.314;2023-03-12T04:23:31;100880.22;;;2.08;100.00
10852;BME280;5479;52.046;6.314;2023-03-12T04:25:59;100876.63;;;2.12;100.00
10852;BME280;5479;52.046;6.314;2023-03-12T04:28:29;100873.13;;;2.13;100.00
10852;BME280;5479;52.046;6.314;2023-03-12T04:30:58;100867.66;;;2.22;100.00
10852;BME280;5479;52.046;6.314;2023-03-12T04:33:27;100871.47;;;2.09;100.00
10852;BME280;5479;52.046;6.314;2023-03-12T04:35:55;100874.00;;;2.12;100.00
10852;BME280;5479;52.046;6.314;2023-03-12T04:38:25;100868.78;;;2.14;100.00
10852;BME280;5479;52.046;6.314;2023-03-12T04:40:57;100879.31;;;2.09;100.00
10852;BME280;5479;52.046;6.314;2023-03-12T04:43:25;100876.63;;;2.12;100.00
10852;BME280;5479;52.046;6.314;2023-03-12T04:45:56;100864.63;;;2.05;100.00
10852;BME280;5479;52.046;6.314;2023-03-12T04:48:24;100855.16;;;2.00;100.00
10852;BME280;5479;52.046;6.314;2023-03-12T04:50:52;100860.50;;;1.95;100.00
10852;BME280;5479;52.046;6.314;2023-03-12T04:53:21;100857.06;;;1.93;100.00
10852;BME280;5479;52.046;6.314;2023-03-12T04:55:49;100852.56;;;1.98;100.00
10852;BME280;5479;52.046;6.314;2023-03-12T04:58:18;100860.50;;;1.95;100.00
10852;BME280;5479;52.046;6.314;2023-03-12T05:00:48;100854.44;;;1.93;100.00
10852;BME280;5479;52.046;6.314;2023-03-12T05:03:17;100848.28;;;1.96;100.00
10852;BME280;5479;52.046;6.314;2023-03-12T05:05:45;100843.84;;;1.99;100.00
10852;BME280;5479;52.046;6.314;2023-03-12T05:08:13;100849.91;;;2.01;100.00
10852;BME280;5479;52.046;6.314;2023-03-12T05:10:41;100847.34;;;1.98;100.00
10852;BME280;5479;52.046;6.314;2023-03-12T05:13:13;100845.66;;;1.97;100.00
10852;BME280;5479;52.046;6.314;2023-03-12T05:15:42;100843.78;;;2.02;100.00
10852;BME280;5479;52.046;6.314;2023-03-12T05:18:10;100853.41;;;2.00;100.00
10852;BME280;5479;52.046;6.314;2023-03-12T05:20:40;100849.09;;;1.99;100.00
10852;BME280;5479;52.046;6.314;2023-03-12T05:23:08;100839.44;;;2.03;100.00
10852;BME280;5479;52.046;6.314;2023-03-12T05:25:38;100835.81;;;2.08;100.00
10852;BME280;5479;52.046;6.314;2023-03-12T05:28:07;100827.06;;;2.09;100.00
10852;BME280;5479;52.046;6.314;2023-03-12T05:30:35;100825.38;;;2.07;100.00
10852;BME280;5479;52.046;6.314;2023-03-12T05:33:02;100820.09;;;2.10;100.00
10852;BME280;5479;52.046;6.314;2023-03-12T05:35:30;100816.63;;;2.09;100.00
10852;BME280;5479;52.046;6.314;2023-03-12T05:38:00;100805.34;;;2.07;100.00
10852;BME280;5479;52.046;6.314;2023-03-12T05:40:29;100813.06;;;2.13;100.00
10852;BME280;5479;52.046;6.314;2023-03-12T05:42:57;100799.25;;;2.08;100.00
10852;BME280;5479;52.046;6.314;2023-03-12T05:45:25;100806.06;;;2.14;100.00
10852;BME280;5479;52.046;6.314;2023-03-12T05:47:53;100804.41;;;2.10;100.00
10852;BME280;5479;52.046;6.314;2023-03-12T05:50:21;100796.63;;;2.08;100.00
10852;BME280;5479;52.046;6.314;2023-03-12T05:52:50;100788.97;;;2.01;100.00
10852;BME280;5479;52.046;6.314;2023-03-12T05:55:19;100781.31;;;1.95;100.00
10852;BME280;5479;52.046;6.314;2023-03-12T05:57:47;100781.25;;;1.96;100.00
10852;BME280;5479;52.046;6.314;2023-03-12T06:00:16;100787.59;;;1.86;100.00
10852;BME280;5479;52.046;6.314;2023-03-12T06:02:44;100788.34;;;1.91;100.00
10852;BME280;5479;52.046;6.314;2023-03-12T06:05:12;100790.81;;;1.96;100.00
10852;BME280;5479;52.046;6.314;2023-03-12T06:07:40;100786.53;;;1.93;100.00
10852;BME280;5479;52.046;6.314;2023-03-12T06:10:09;100789.06;;;1.98;100.00
10852;BME280;5479;52.046;6.314;2023-03-12T06:12:39;100791.63;;;1.99;100.00
10852;BME280;5479;52.046;6.314;2023-03-12T06:15:08;100792.50;;;1.98;100.00
10852;BME280;5479;52.046;6.314;2023-03-12T06:17:36;100782.97;;;1.97;100.00
10852;BME280;5479;52.046;6.314;2023-03-12T06:20:05;100772.47;;;2.00;100.00
10852;BME280;5479;52.046;6.314;2023-03-12T06:22:33;100764.66;;;1.99;100.00
10852;BME280;5479;52.046;6.314;2023-03-12T06:25:01;100763.88;;;1.95;100.00
10852;BME280;5479;52.046;6.314;2023-03-12T06:27:29;100764.88;;;1.90;100.00
10852;BME280;5479;52.046;6.314;2023-03-12T06:29:59;100762.91;;;1.99;100.00
10852;BME280;5479;52.046;6.314;2023-03-12T06:32:27;100749.69;;;2.05;100.00
10852;BME280;5479;52.046;6.314;2023-03-12T06:34:54;100739.94;;;2.12;100.00
10852;BME280;5479;52.046;6.314;2023-03-12T06:37:23;100747.59;;;2.19;100.00
10852;BME280;5479;52.046;6.314;2023-03-12T06:39:50;100740.38;;;2.27;100.00
10852;BME280;5479;52.046;6.314;2023-03-12T06:42:18;100745.59;;;2.27;100.00
10852;BME280;5479;52.046;6.314;2023-03-12T06:44:48;100740.22;;;2.33;100.00
10852;BME280;5479;52.046;6.314;2023-03-12T06:47:17;100741.91;;;2.36;100.00
10852;BME280;5479;52.046;6.314;2023-03-12T06:49:45;100740.38;;;2.27;100.00
10852;BME280;5479;52.046;6.314;2023-03-12T06:52:13;100736.81;;;2.31;100.00
10852;BME280;5479;52.046;6.314;2023-03-12T06:54:41;100734.06;;;2.36;100.00
10852;BME280;5479;52.046;6.314;2023-03-12T06:57:09;100741.00;;;2.37;100.00
10852;BME280;5479;52.046;6.314;2023-03-12T06:59:37;100741.00;;;2.37;100.00
10852;BME280;5479;52.046;6.314;2023-03-12T07:02:05;100735.56;;;2.46;100.00
10852;BME280;5479;52.046;6.314;2023-03-12T07:04:34;100744.31;;;2.43;100.00
10852;BME280;5479;52.046;6.314;2023-03-12T07:07:02;100731.16;;;2.47;100.00
10852;BME280;5479;52.046;6.314;2023-03-12T07:09:30;100736.38;;;2.47;100.00
10852;BME280;5479;52.046;6.314;2023-03-12T07:11:58;100729.28;;;2.52;100.00
10852;BME280;5479;52.046;6.314;2023-03-12T07:14:26;100722.38;;;2.49;100.00
10852;BME280;5479;52.046;6.314;2023-03-12T07:16:54;100717.34;;;2.43;100.00
10852;BME280;5479;52.046;6.314;2023-03-12T07:19:23;100717.38;;;2.41;100.00
10852;BME280;5479;52.046;6.314;2023-03-12T07:21:53;100721.69;;;2.42;100.00
10852;BME280;5479;52.046;6.314;2023-03-12T07:24:20;100724.41;;;2.39;100.00
10852;BME280;5479;52.046;6.314;2023-03-12T07:26:49;100712.91;;;2.45;100.00
10852;BME280;5479;52.046;6.314;2023-03-12T07:29:17;100713.88;;;2.42;100.00
10852;BME280;5479;52.046;6.314;2023-03-12T07:31:45;100711.91;;;2.51;100.00
10852;BME280;5479;52.046;6.314;2023-03-12T07:34:13;100708.19;;;2.58;100.00
10852;BME280;5479;52.046;6.314;2023-03-12T07:36:40;100695.84;;;2.63;100.00
10852;BME280;5479;52.046;6.314;2023-03-12T07:39:10;100691.47;;;2.65;100.00
10852;BME280;5479;52.046;6.314;2023-03-12T07:41:38;100684.38;;;2.68;100.00
10852;BME280;5479;52.046;6.314;2023-03-12T07:44:06;100688.53;;;2.75;100.00
10852;BME280;5479;52.046;6.314;2023-03-12T07:46:35;100680.63;;;2.77;100.00
10852;BME280;5479;52.046;6.314;2023-03-12T07:49:03;100681.63;;;2.73;100.00
10852;BME280;5479;52.046;6.314;2023-03-12T07:51:31;100672.69;;;2.80;100.00
10852;BME280;5479;52.046;6.314;2023-03-12T07:53:58;100673.25;;;2.91;100.00
10852;BME280;5479;52.046;6.314;2023-03-12T07:56:28;100674.91;;;2.93;100.00
10852;BME280;5479;52.046;6.314;2023-03-12T07:58:56;100672.44;;;2.89;100.00
10852;BME280;5479;52.046;6.314;2023-03-12T08:01:23;100675.09;;;2.87;100.00
10852;BME280;5479;52.046;6.314;2023-03-12T08:03:57;100678.47;;;2.91;100.00
10852;BME280;5479;52.046;6.314;2023-03-12T08:06:25;100674.31;;;2.84;100.00
10852;BME280;5479;52.046;6.314;2023-03-12T08:08:53;100668.91;;;2.90;100.00
10852;BME280;5479;52.046;6.314;2023-03-12T08:11:21;100668.81;;;2.93;100.00
10852;BME280;5479;52.046;6.314;2023-03-12T08:13:50;100677.47;;;2.95;100.00
10852;BME280;5479;52.046;6.314;2023-03-12T08:16:18;100678.97;;;3.03;100.00
10852;BME280;5479;52.046;6.314;2023-03-12T08:18:46;100672.91;;;3.01;100.00
10852;BME280;5479;52.046;6.314;2023-03-12T08:21:15;100675.47;;;3.03;100.00
10852;BME280;5479;52.046;6.314;2023-03-12T08:23:43;100677.13;;;3.07;100.00
10852;BME280;5479;52.046;6.314;2023-03-12T08:26:11;100669.88;;;3.15;100.00
10852;BME280;5479;52.046;6.314;2023-03-12T08:28:39;100685.50;;;3.18;100.00
10852;BME280;5479;52.046;6.314;2023-03-12T08:31:09;100688.81;;;3.23;100.00
10852;BME280;5479;52.046;6.314;2023-03-12T08:33:37;100698.09;;;3.33;100.00
10852;BME280;5479;52.046;6.314;2023-03-12T08:36:09;100697.31;;;3.30;100.00
10852;BME280;5479;52.046;6.314;2023-03-12T08:38:37;100689.97;;;3.42;100.00
10852;BME280;5479;52.046;6.314;2023-03-12T08:41:05;100691.84;;;3.37;100.00
10852;BME280;5479;52.046;6.314;2023-03-12T08:43:33;100693.84;;;3.29;100.00
10852;BME280;5479;52.046;6.314;2023-03-12T08:46:02;100692.09;;;3.30;100.00
10852;BME280;5479;52.046;6.314;2023-03-12T08:48:32;100695.56;;;3.30;100.00
10852;BME280;5479;52.046;6.314;2023-03-12T08:51:00;100693.84;;;3.29;100.00
10852;BME280;5479;52.046;6.314;2023-03-12T08:53:30;100692.25;;;3.25;100.00
10852;BME280;5479;52.046;6.314;2023-03-12T08:56:00;100689.06;;;3.16;100.00
10852;BME280;5479;52.046;6.314;2023-03-12T08:58:29;100689.81;;;3.19;100.00
10852;BME280;5479;52.046;6.314;2023-03-12T09:00:57;100689.63;;;3.25;100.00
10852;BME280;5479;52.046;6.314;2023-03-12T09:03:25;100687.78;;;3.29;100.00
10852;BME280;5479;52.046;6.314;2023-03-12T09:06:04;100685.00;;;3.33;100.00
10852;BME280;5479;52.046;6.314;2023-03-12T09:08:33;100686.59;;;3.37;100.00
10852;BME280;5479;52.046;6.314;2023-03-12T09:11:01;100684.72;;;3.42;100.00
10852;BME280;5479;52.046;6.314;2023-03-12T09:13:29;100690.16;;;3.36;100.00
10852;BME280;5479;52.046;6.314;2023-03-12T09:15:58;100678.66;;;3.40;100.00
10852;BME280;5479;52.046;6.314;2023-03-12T09:18:27;100676.81;;;3.44;100.00
10852;BME280;5479;52.046;6.314;2023-03-12T09:20:56;100680.03;;;3.52;100.00
10852;BME280;5479;52.046;6.314;2023-03-12T09:23:26;100676.97;;;3.65;100.00
10852;BME280;5479;52.046;6.314;2023-03-12T09:25:55;100669.72;;;3.74;100.00
10852;BME280;5479;52.046;6.314;2023-03-12T09:28:23;100684.91;;;3.89;100.00
10852;BME280;5479;52.046;6.314;2023-03-12T09:30:50;100675.97;;;3.96;100.00
10852;BME280;5479;52.046;6.314;2023-03-12T09:33:18;100675.19;;;3.92;100.00
10852;BME280;5479;52.046;6.314;2023-03-12T09:35:55;100680.97;;;4.02;100.00
10852;BME280;5479;52.046;6.314;2023-03-12T09:38:23;100683.19;;;4.14;100.00
10852;BME280;5479;52.046;6.314;2023-03-12T09:40:53;100676.91;;;4.18;100.00
10852;BME280;5479;52.046;6.314;2023-03-12T09:43:25;100678.63;;;4.19;100.00
10852;BME280;5479;52.046;6.314;2023-03-12T09:45:55;100674.88;;;4.26;100.00
10852;BME280;5479;52.046;6.314;2023-03-12T09:48:27;100680.13;;;4.26;100.00
10852;BME280;5479;52.046;6.314;2023-03-12T09:51:00;100668.13;;;4.44;100.00
10852;BME280;5479;52.046;6.314;2023-03-12T09:53:32;100672.41;;;4.46;100.00
10852;BME280;5479;52.046;6.314;2023-03-12T09:56:05;100667.63;;;4.57;100.00
10852;BME280;5479;52.046;6.314;2023-03-12T09:58:37;100660.91;;;4.73;100.00
10852;BME280;5479;52.046;6.314;2023-03-12T10:01:11;100675.03;;;4.69;100.00
10852;BME280;5479;52.046;6.314;2023-03-12T10:04:09;100679.09;;;4.78;100.00
10852;BME280;5479;52.046;6.314;2023-03-12T10:06:42;100660.66;;;4.79;100.00
10852;BME280;5479;52.046;6.314;2023-03-12T10:09:26;100661.91;;;4.93;100.00
10852;BME280;5479;52.046;6.314;2023-03-12T10:12:04;100664.06;;;5.05;100.00
10852;BME280;5479;52.046;6.314;2023-03-12T10:14:43;100666.63;;;5.28;100.00
10852;BME280;5479;52.046;6.314;2023-03-12T10:17:24;100676.56;;;5.43;100.00
10852;BME280;5479;52.046;6.314;2023-03-12T10:22:50;100669.16;;;5.73;100.00
10852;BME280;5479;52.046;6.314;2023-03-12T10:25:23;100669.66;;;5.82;100.00
10852;BME280;5479;52.046;6.314;2023-03-12T10:27:58;100660.75;;;5.86;100.00
10852;BME280;5479;52.046;6.314;2023-03-12T10:30:31;100659.47;;;5.96;100.00
10852;BME280;5479;52.046;6.314;2023-03-12T10:33:01;100640.84;;;6.01;100.00
10852;BME280;5479;52.046;6.314;2023-03-12T10:35:30;100650.84;;;6.13;100.00
10852;BME280;5479;52.046;6.314;2023-03-12T10:37:59;100653.00;;;6.24;100.00
10852;BME280;5479;52.046;6.314;2023-03-12T10:40:30;100653.69;;;6.47;100.00
10852;BME280;5479;52.046;6.314;2023-03-12T10:43:01;100656.69;;;6.58;100.00
10852;BME280;5479;52.046;6.314;2023-03-12T10:45:33;100664.41;;;6.63;100.00
10852;BME280;5479;52.046;6.314;2023-03-12T10:48:05;100648.25;;;6.71;100.00
10852;BME280;5479;52.046;6.314;2023-03-12T10:50:35;100650.66;;;6.75;100.00
10852;BME280;5479;52.046;6.314;2023-03-12T10:53:20;100648.13;;;6.92;100.00
10852;BME280;5479;52.046;6.314;2023-03-12T10:56:00;100649.63;;;6.98;100.00
10852;BME280;5479;52.046;6.314;2023-03-12T10:58:33;100631.75;;;7.04;100.00
10852;BME280;5479;52.046;6.314;2023-03-12T11:01:03;100638.44;;;7.11;100.00
10852;BME280;5479;52.046;6.314;2023-03-12T11:03:33;100637.44;;;7.14;100.00
10852;BME280;5479;52.046;6.314;2023-03-12T11:06:01;100637.72;;;7.08;100.00
10852;BME280;5479;52.046;6.314;2023-03-12T11:08:31;100641.97;;;7.29;100.00
10852;BME280;5479;52.046;6.314;2023-03-12T11:11:00;100632.09;;;7.51;100.00
10852;BME280;5479;52.046;6.314;2023-03-12T11:13:32;100633.25;;;7.46;100.00
10852;BME280;5479;52.046;6.314;2023-03-12T11:16:02;100638.19;;;7.52;100.00
10852;BME280;5479;52.046;6.314;2023-03-12T11:18:53;100644.59;;;7.65;100.00
10852;BME280;5479;52.046;6.314;2023-03-12T11:21:23;100644.25;;;7.71;100.00
10852;BME280;5479;52.046;6.314;2023-03-12T11:24:06;100645.53;;;7.81;100.00
10852;BME280;5479;52.046;6.314;2023-03-12T11:26:38;100651.63;;;7.81;100.00
10852;BME280;5479;52.046;6.314;2023-03-12T11:29:20;100653.13;;;7.87;100.00
10852;BME280;5479;52.046;6.314;2023-03-12T11:31:56;100635.28;;;8.09;100.00
10852;BME280;5479;52.046;6.314;2023-03-12T11:34:28;100643.81;;;8.31;100.00
10852;BME280;5479;52.046;6.314;2023-03-12T11:37:05;100639.84;;;8.23;100.00
10852;BME280;5479;52.046;6.314;2023-03-12T11:39:43;100638.84;;;8.42;100.00
10852;BME280;5479;52.046;6.314;2023-03-12T11:42:21;100642.59;;;8.54;100.00
10852;BME280;5479;52.046;6.314;2023-03-12T11:44:59;100652.47;;;8.51;100.00
10852;BME280;5479;52.046;6.314;2023-03-12T11:47:46;100661.50;;;8.62;100.00
10852;BME280;5479;52.046;6.314;2023-03-12T11:50:26;100660.34;;;8.83;100.00
10852;BME280;5479;52.046;6.314;2023-03-12T11:53:11;100655.03;;;9.00;100.00
10852;BME280;5479;52.046;6.314;2023-03-12T11:55:53;100655.63;;;9.05;100.00
10852;BME280;5479;52.046;6.314;2023-03-12T11:58:34;100652.53;;;8.97;100.00
10852;BME280;5479;52.046;6.314;2023-03-12T12:01:10;100648.88;;;9.00;100.00
10852;BME280;5479;52.046;6.314;2023-03-12T12:06:58;100638.91;;;9.05;100.00
10852;BME280;5479;52.046;6.314;2023-03-12T12:09:36;100643.69;;;9.14;100.00
10852;BME280;5479;52.046;6.314;2023-03-12T12:12:23;100632.59;;;9.23;100.00
10852;BME280;5479;52.046;6.314;2023-03-12T12:15:03;100630.75;;;9.25;100.00
10852;BME280;5479;52.046;6.314;2023-03-12T12:17:51;100626.47;;;9.38;100.00
10852;BME280;5479;52.046;6.314;2023-03-12T12:20:28;100615.91;;;9.38;100.00
10852;BME280;5479;52.046;6.314;2023-03-12T12:23:09;100618.78;;;9.34;100.00
10852;BME280;5479;52.046;6.314;2023-03-12T12:26:05;100613.41;;;9.35;100.00
10852;BME280;5479;52.046;6.314;2023-03-12T12:31:39;100602.81;;;9.51;100.00
10852;BME280;5479;52.046;6.314;2023-03-12T12:34:52;100597.44;;;9.52;100.00
10852;BME280;5479;52.046;6.314;2023-03-12T12:37:30;100592.38;;;9.63;100.00
10852;BME280;5479;52.046;6.314;2023-03-12T12:40:09;100599.44;;;9.79;100.00
10852;BME280;5479;52.046;6.314;2023-03-12T12:42:50;100596.41;;;9.85;100.00
10852;BME280;5479;52.046;6.314;2023-03-12T12:45:20;100596.06;;;10.05;100.00
10852;BME280;5479;52.046;6.314;2023-03-12T12:47:54;100593.44;;;10.05;100.00
10852;BME280;5479;52.046;6.314;2023-03-12T12:50:29;100598.19;;;10.14;100.00
10852;BME280;5479;52.046;6.314;2023-03-12T12:53:04;100593.91;;;9.97;100.00
10852;BME280;5479;52.046;6.314;2023-03-12T12:55:36;100586.81;;;9.98;100.00
10852;BME280;5479;52.046;6.314;2023-03-12T12:58:12;100583.97;;;10.01;100.00
10852;BME280;5479;52.046;6.314;2023-03-12T13:00:45;100575.09;;;10.02;100.00
10852;BME280;5479;52.046;6.314;2023-03-12T13:03:17;100570.56;;;9.90;100.00
10852;BME280;5479;52.046;6.314;2023-03-12T13:05:54;100570.16;;;9.96;100.00
10852;BME280;5479;52.046;6.314;2023-03-12T13:08:34;100575.28;;;9.99;100.00
10852;BME280;5479;52.046;6.314;2023-03-12T13:11:05;100563.97;;;10.11;100.00
10852;BME280;5479;52.046;6.314;2023-03-12T13:13:33;100573.13;;;10.19;100.00
10852;BME280;5479;52.046;6.314;2023-03-12T13:16:26;100566.06;;;10.20;100.00
10852;BME280;5479;52.046;6.314;2023-03-12T13:18:57;100574.34;;;10.14;100.00
10852;BME280;5479;52.046;6.314;2023-03-12T13:21:35;100562.25;;;10.10;100.00
10852;BME280;5479;52.046;6.314;2023-03-12T13:24:14;100559.63;;;10.38;100.00
10852;BME280;5479;52.046;6.314;2023-03-12T13:26:51;100562.63;;;10.60;100.00
10852;BME280;5479;52.046;6.314;2023-03-12T13:29:34;100565.78;;;10.53;100.00